Time;durP1;ratioP1;P1;durP2;ratioP2;P2;SDS_P1;SDS_P2;PMS_P1;PMS_P2;Temp;Humidity;BMP_temperature;BMP_pressure;BME280_temperature;BME280_humidity;BME280_pressure;Samples;Min_cycle;Max_cycle;Signal;HPM_P1;HPM_P2
2023/10/25 00:02:19;;;;;;;3.20;3.00;;;18.90;73.00;;;;;;4974268;28;20442;-77
2023/10/25 00:04:47;;;;;;;3.00;2.60;;;18.90;72.80;;;;;;4964380;28;20495;-77
2023/10/25 00:07:17;;;;;;;3.30;2.80;;;18.80;72.80;;;;;;4964061;28;20439;-77
2023/10/25 00:09:44;;;;;;;3.40;3.10;;;18.90;72.80;;;;;;4966537;28;20501;-78
2023/10/25 00:12:12;;;;;;;5.23;3.40;;;18.80;72.90;;;;;;4966795;28;20456;-77
2023/10/25 00:14:41;;;;;;;5.23;3.60;;;18.80;73.00;;;;;;4965590;28;20475;-78
2023/10/25 00:17:09;;;;;;;3.17;2.97;;;18.80;72.70;;;;;;4968820;28;20501;-79
2023/10/25 00:19:39;;;;;;;3.27;2.90;;;18.80;72.90;;;;;;4989523;28;20526;-79
2023/10/25 00:22:07;;;;;;;3.13;2.83;;;18.80;72.70;;;;;;4961159;28;20454;-80
2023/10/25 00:24:35;;;;;;;3.50;3.27;;;18.80;72.60;;;;;;4969870;28;20569;-80
2023/10/25 00:27:04;;;;;;;4.37;3.67;;;18.80;72.60;;;;;;4979717;28;20449;-80
2023/10/25 00:29:34;;;;;;;3.60;3.30;;;18.80;72.70;;;;;;4977699;28;20448;-77
2023/10/25 00:32:04;;;;;;;3.23;2.87;;;18.80;73.10;;;;;;4975520;28;20541;-79
2023/10/25 00:34:33;;;;;;;3.57;3.27;;;18.80;72.90;;;;;;4968121;28;20469;-79
2023/10/25 00:37:02;;;;;;;3.23;3.03;;;18.80;72.70;;;;;;4975909;28;20494;-80
2023/10/25 00:39:31;;;;;;;8.90;3.30;;;18.70;72.60;;;;;;4970801;28;20454;-79
2023/10/25 00:41:59;;;;;;;3.30;3.00;;;18.70;73.40;;;;;;4976278;28;20443;-80
2023/10/25 00:44:27;;;;;;;5.17;3.10;;;18.80;72.70;;;;;;4968916;28;20474;-79
2023/10/25 00:46:55;;;;;;;3.70;3.17;;;18.70;72.50;;;;;;4975817;28;20443;-80
2023/10/25 00:49:23;;;;;;;3.30;3.10;;;18.70;72.60;;;;;;4965196;28;20447;-79
2023/10/25 00:51:52;;;;;;;3.57;3.20;;;18.70;72.60;;;;;;4970084;28;20446;-77
2023/10/25 00:54:22;;;;;;;4.60;3.10;;;18.70;72.60;;;;;;4974778;28;20455;-78
2023/10/25 00:56:50;;;;;;;4.90;3.30;;;18.70;72.50;;;;;;4966670;28;20466;-78
2023/10/25 00:59:18;;;;;;;3.07;2.80;;;18.70;72.90;;;;;;4966100;28;20461;-79
2023/10/25 01:01:47;;;;;;;4.13;3.47;;;18.70;72.90;;;;;;4970885;28;20462;-80
2023/10/25 01:04:15;;;;;;;3.63;3.33;;;18.70;72.80;;;;;;4961003;28;21006;-81
2023/10/25 01:06:43;;;;;;;3.00;2.80;;;18.70;72.70;;;;;;4976970;28;20533;-81
2023/10/25 01:09:11;;;;;;;3.20;2.90;;;18.70;72.60;;;;;;4963909;28;20451;-80
2023/10/25 01:11:41;;;;;;;4.43;3.60;;;18.70;72.70;;;;;;4964306;28;20447;-81
2023/10/25 01:14:09;;;;;;;3.90;3.40;;;18.70;72.50;;;;;;4986214;28;20481;-77
2023/10/25 01:16:37;;;;;;;3.40;3.10;;;18.60;72.80;;;;;;4966654;28;20509;-79
2023/10/25 01:19:05;;;;;;;4.07;3.67;;;18.60;72.60;;;;;;4973323;28;20450;-80
2023/10/25 01:21:33;;;;;;;3.57;3.13;;;18.60;72.50;;;;;;4974392;28;20450;-78
2023/10/25 01:24:02;;;;;;;3.40;3.10;;;18.60;72.60;;;;;;4972301;28;20461;-80
2023/10/25 01:26:31;;;;;;;3.40;2.90;;;18.60;72.40;;;;;;4973729;28;20526;-80
2023/10/25 01:28:58;;;;;;;3.37;2.70;;;18.60;72.50;;;;;;4959564;28;20519;-80
2023/10/25 01:31:26;;;;;;;3.43;3.13;;;18.60;72.60;;;;;;4967371;28;20430;-79
2023/10/25 01:33:54;;;;;;;4.20;3.33;;;18.60;72.60;;;;;;4975729;28;20508;-80
2023/10/25 01:36:22;;;;;;;3.33;3.13;;;18.60;72.60;;;;;;4984866;28;20437;-79
2023/10/25 01:38:50;;;;;;;2.60;2.40;;;18.60;72.50;;;;;;4978712;28;20434;-79
2023/10/25 01:41:19;;;;;;;3.60;3.07;;;18.60;72.40;;;;;;4984994;28;20450;-80
2023/10/25 01:43:47;;;;;;;3.67;3.17;;;18.60;72.60;;;;;;4984516;28;20502;-79
2023/10/25 01:46:15;;;;;;;3.37;3.07;;;18.60;72.40;;;;;;4962298;28;20512;-79
2023/10/25 01:48:44;;;;;;;2.87;2.70;;;18.50;72.50;;;;;;4974085;28;20439;-79
2023/10/25 01:51:12;;;;;;;3.40;2.93;;;18.50;72.50;;;;;;4958646;28;20490;-80
2023/10/25 01:53:41;;;;;;;3.50;3.20;;;18.50;72.50;;;;;;4968923;28;20593;-78
2023/10/25 01:56:09;;;;;;;3.40;3.10;;;18.50;72.30;;;;;;4965659;28;20477;-79
2023/10/25 01:58:38;;;;;;;4.27;2.97;;;18.50;72.20;;;;;;4981130;28;20517;-79
2023/10/25 02:01:07;;;;;;;3.67;3.00;;;18.50;72.30;;;;;;4973239;28;20446;-79
2023/10/25 02:03:35;;;;;;;3.50;3.17;;;18.50;72.50;;;;;;4973263;28;20466;-79
2023/10/25 02:06:13;;;;;;;2.90;2.70;;;18.50;72.40;;;;;;4965973;28;20482;-79
2023/10/25 02:08:42;;;;;;;4.00;3.13;;;18.50;72.30;;;;;;4973373;28;20430;-78
2023/10/25 02:11:10;;;;;;;2.80;2.43;;;18.50;72.10;;;;;;4973121;28;20450;-79
2023/10/25 02:13:39;;;;;;;2.97;2.77;;;18.40;72.10;;;;;;4966652;28;20539;-78
2023/10/25 02:16:14;;;;;;;3.40;3.10;;;18.50;72.40;;;;;;4970864;28;20443;-78
2023/10/25 02:18:42;;;;;;;3.63;2.97;;;18.40;72.20;;;;;;4977228;28;20474;-79
2023/10/25 02:21:11;;;;;;;3.07;2.87;;;18.40;72.30;;;;;;4966970;28;20442;-80
2023/10/25 02:23:40;;;;;;;3.77;3.10;;;18.40;72.20;;;;;;4967846;28;20459;-80
2023/10/25 02:26:08;;;;;;;3.30;3.00;;;18.40;72.10;;;;;;4970599;28;20438;-77
2023/10/25 02:28:36;;;;;;;5.00;3.40;;;18.40;72.30;;;;;;4967585;28;20505;-81
2023/10/25 02:31:05;;;;;;;3.00;2.80;;;18.40;72.00;;;;;;4971107;28;20469;-80
2023/10/25 02:33:33;;;;;;;2.80;2.60;;;18.40;72.00;;;;;;4972621;28;20454;-79
2023/10/25 02:36:01;;;;;;;2.73;2.60;;;18.40;72.10;;;;;;4973154;28;20454;-80
2023/10/25 02:38:29;;;;;;;3.80;2.40;;;18.40;72.10;;;;;;4966042;28;20548;-80
2023/10/25 02:40:57;;;;;;;3.20;2.90;;;18.40;72.10;;;;;;4970954;28;20489;-79
2023/10/25 02:43:25;;;;;;;5.00;3.07;;;18.40;72.00;;;;;;4978060;28;20533;-80
2023/10/25 02:45:53;;;;;;;2.73;2.53;;;18.40;72.00;;;;;;4979235;28;20445;-79
2023/10/25 02:48:23;;;;;;;2.80;2.60;;;18.40;72.10;;;;;;4979315;28;20537;-79
2023/10/25 02:50:51;;;;;;;3.50;3.10;;;18.40;72.00;;;;;;4981002;28;20441;-79
2023/10/25 02:53:19;;;;;;;3.47;3.23;;;18.30;72.00;;;;;;4978408;28;20511;-78
2023/10/25 02:55:47;;;;;;;4.67;2.93;;;18.30;71.80;;;;;;4970539;28;20435;-80
2023/10/25 02:58:15;;;;;;;2.87;2.67;;;18.30;71.90;;;;;;4970992;28;20570;-79
2023/10/25 03:00:44;;;;;;;4.00;2.43;;;18.30;71.90;;;;;;4978624;28;20454;-80
2023/10/25 03:03:12;;;;;;;5.43;3.10;;;18.30;72.00;;;;;;4971308;28;20453;-80
2023/10/25 03:05:41;;;;;;;2.60;2.40;;;18.30;71.90;;;;;;4975931;28;20450;-80
2023/10/25 03:08:08;;;;;;;3.57;2.93;;;18.30;72.00;;;;;;4969244;28;20542;-79
2023/10/25 03:10:36;;;;;;;2.43;2.23;;;18.30;72.20;;;;;;4983389;28;20450;-81
2023/10/25 03:13:04;;;;;;;6.67;2.60;;;18.30;72.10;;;;;;4978827;28;20454;-81
2023/10/25 03:15:33;;;;;;;2.20;2.10;;;18.30;72.10;;;;;;4972183;28;20498;-79
2023/10/25 03:18:01;;;;;;;2.80;2.57;;;18.30;72.20;;;;;;4961644;28;20550;-78
2023/10/25 03:20:29;;;;;;;2.53;2.30;;;18.30;72.30;;;;;;4977723;28;20449;-80
2023/10/25 03:22:58;;;;;;;2.30;2.20;;;18.20;72.40;;;;;;4982023;28;20442;-82
2023/10/25 03:25:26;;;;;;;3.00;2.80;;;18.30;72.30;;;;;;4972288;28;20481;-80
2023/10/25 03:27:55;;;;;;;2.93;2.53;;;18.30;72.40;;;;;;4973674;28;20469;-80
2023/10/25 03:30:23;;;;;;;2.73;2.50;;;18.20;72.20;;;;;;4970718;28;20473;-80
2023/10/25 03:32:51;;;;;;;2.80;2.60;;;18.20;72.20;;;;;;4978946;28;20973;-80
2023/10/25 03:35:19;;;;;;;2.33;2.17;;;18.20;72.00;;;;;;4978330;28;20557;-81
2023/10/25 03:37:48;;;;;;;2.90;2.70;;;18.20;72.00;;;;;;4978557;28;20561;-81
2023/10/25 03:40:18;;;;;;;2.93;2.67;;;18.20;72.20;;;;;;4976365;28;20492;-80
2023/10/25 03:42:46;;;;;;;2.80;2.60;;;18.20;72.10;;;;;;4961837;28;20533;-82
2023/10/25 03:45:14;;;;;;;2.00;1.90;;;18.20;72.20;;;;;;4968156;28;20557;-79
2023/10/25 03:47:42;;;;;;;2.53;2.33;;;18.20;72.30;;;;;;4968099;28;20462;-79
2023/10/25 03:50:10;;;;;;;2.40;2.30;;;18.20;72.00;;;;;;4969323;28;20447;-79
2023/10/25 03:52:39;;;;;;;3.10;2.50;;;18.20;72.20;;;;;;4961655;28;20521;-79
2023/10/25 03:55:08;;;;;;;2.70;2.23;;;18.20;72.10;;;;;;4977363;28;20545;-80
2023/10/25 03:57:37;;;;;;;2.70;2.50;;;18.20;71.90;;;;;;4961288;28;20441;-79
2023/10/25 04:00:06;;;;;;;2.67;2.47;;;18.20;72.00;;;;;;4977333;28;20481;-81
2023/10/25 04:02:34;;;;;;;2.70;2.60;;;18.20;72.10;;;;;;4968144;28;20493;-79
2023/10/25 04:05:02;;;;;;;2.20;2.00;;;18.20;72.10;;;;;;4977550;28;20490;-79
2023/10/25 04:07:30;;;;;;;2.57;2.47;;;18.20;72.10;;;;;;4978176;28;20485;-80
2023/10/25 04:09:58;;;;;;;2.40;2.20;;;18.10;71.90;;;;;;4993733;28;20504;-80
2023/10/25 04:12:27;;;;;;;2.53;2.40;;;18.10;71.80;;;;;;4961071;28;20459;-80
2023/10/25 04:14:57;;;;;;;2.50;2.30;;;18.10;72.10;;;;;;4976185;28;20503;-82
2023/10/25 04:17:25;;;;;;;2.90;2.23;;;18.10;72.00;;;;;;4967892;28;20451;-80
2023/10/25 04:19:53;;;;;;;2.67;2.47;;;18.10;72.00;;;;;;4976169;28;20477;-80
2023/10/25 04:22:22;;;;;;;2.80;2.60;;;18.10;71.80;;;;;;4976705;28;20454;-79
2023/10/25 04:24:50;;;;;;;7.43;2.67;;;18.10;71.90;;;;;;4959600;28;20550;-79
2023/10/25 04:27:18;;;;;;;2.70;2.50;;;18.10;71.60;;;;;;4964574;28;20522;-79
2023/10/25 04:29:46;;;;;;;4.03;3.13;;;18.10;71.70;;;;;;4975848;28;20528;-79
2023/10/25 04:32:15;;;;;;;3.00;2.80;;;18.10;71.50;;;;;;4972772;28;20446;-80
2023/10/25 04:34:44;;;;;;;2.87;2.67;;;18.00;71.50;;;;;;4968927;28;20533;-80
2023/10/25 04:37:13;;;;;;;3.00;2.47;;;18.00;71.50;;;;;;4976878;28;20501;-80
2023/10/25 04:39:41;;;;;;;5.07;2.40;;;18.00;71.40;;;;;;4971926;28;20504;-81
2023/10/25 04:42:09;;;;;;;4.30;3.23;;;18.00;71.40;;;;;;4978348;28;20451;-80
2023/10/25 04:44:37;;;;;;;5.67;3.70;;;18.00;71.40;;;;;;4966105;28;20497;-81
2023/10/25 04:47:05;;;;;;;4.30;2.90;;;18.00;71.30;;;;;;4965228;28;20482;-82
2023/10/25 04:49:37;;;;;;;3.47;2.90;;;18.00;71.30;;;;;;4975171;28;20952;-80
2023/10/25 04:52:05;;;;;;;3.33;3.03;;;18.00;71.00;;;;;;4976336;28;20525;-79
2023/10/25 04:54:33;;;;;;;4.00;3.20;;;17.90;71.20;;;;;;4975953;28;20494;-81
2023/10/25 04:57:01;;;;;;;3.50;3.20;;;17.90;71.20;;;;;;4985838;28;20478;-79
2023/10/25 04:59:30;;;;;;;8.03;3.50;;;17.90;71.20;;;;;;4982870;28;20638;-80
2023/10/25 05:01:57;;;;;;;2.80;2.60;;;18.00;71.70;;;;;;4960635;28;20486;-78
2023/10/25 05:04:26;;;;;;;3.57;3.27;;;18.00;71.00;;;;;;4973957;28;20458;-80
2023/10/25 05:06:55;;;;;;;3.13;2.93;;;17.90;70.90;;;;;;4970704;28;20471;-80
2023/10/25 05:09:24;;;;;;;4.07;3.10;;;17.90;70.90;;;;;;4971494;28;20450;-80
2023/10/25 05:11:56;;;;;;;3.37;2.97;;;17.90;71.10;;;;;;4984357;28;20442;-81
2023/10/25 05:14:24;;;;;;;3.67;3.37;;;17.90;71.00;;;;;;4965829;28;20462;-80
2023/10/25 05:16:53;;;;;;;4.63;3.23;;;17.90;71.00;;;;;;4974492;28;20481;-81
2023/10/25 05:19:21;;;;;;;3.17;2.93;;;17.90;70.80;;;;;;4965857;28;20470;-80
2023/10/25 05:21:50;;;;;;;3.87;3.17;;;17.90;70.90;;;;;;4969816;28;20450;-81
2023/10/25 05:24:20;;;;;;;6.10;4.30;;;17.90;70.80;;;;;;4976485;28;20558;-81
2023/10/25 05:26:48;;;;;;;5.83;4.00;;;17.90;70.90;;;;;;4967959;28;20450;-81
2023/10/25 05:29:17;;;;;;;4.90;4.37;;;17.90;71.20;;;;;;4972460;28;20470;-81
2023/10/25 05:31:45;;;;;;;3.90;3.40;;;17.90;71.00;;;;;;4975375;28;20470;-82
2023/10/25 05:34:13;;;;;;;3.30;3.00;;;17.90;71.30;;;;;;4976259;28;20462;-80
2023/10/25 05:36:42;;;;;;;9.07;4.53;;;17.90;71.20;;;;;;4976145;28;20438;-80
2023/10/25 05:39:11;;;;;;;4.20;3.67;;;17.90;71.20;;;;;;4975865;28;20478;-80
2023/10/25 05:41:41;;;;;;;4.27;3.30;;;17.90;71.20;;;;;;4968960;28;20443;-81
2023/10/25 05:44:11;;;;;;;5.17;3.80;;;17.90;71.30;;;;;;4971812;28;20525;-77
2023/10/25 05:46:39;;;;;;;5.87;3.80;;;17.90;71.30;;;;;;4964626;28;20451;-79
2023/10/25 05:49:08;;;;;;;7.40;3.77;;;17.80;71.40;;;;;;4962411;28;20442;-79
2023/10/25 05:51:37;;;;;;;5.20;4.23;;;17.80;71.70;;;;;;4972724;28;20881;-79
2023/10/25 05:54:06;;;;;;;4.00;3.60;;;17.80;71.50;;;;;;4959765;28;20498;-80
2023/10/25 05:56:36;;;;;;;5.70;4.00;;;17.90;71.30;;;;;;4974781;28;20466;-80
2023/10/25 05:59:06;;;;;;;5.03;3.80;;;17.90;71.60;;;;;;4970188;28;21033;-80
2023/10/25 06:01:38;;;;;;;4.63;3.80;;;17.90;71.60;;;;;;4979097;28;20517;-79
2023/10/25 06:04:06;;;;;;;4.00;3.60;;;17.90;71.50;;;;;;4994071;28;20462;-80
2023/10/25 06:06:35;;;;;;;4.50;3.87;;;17.80;71.50;;;;;;4974248;28;20537;-80
2023/10/25 06:09:03;;;;;;;5.90;4.20;;;17.80;71.30;;;;;;4975058;28;20477;-79
2023/10/25 06:11:32;;;;;;;5.77;3.80;;;17.80;71.50;;;;;;4966408;28;20496;-79
2023/10/25 06:14:01;;;;;;;4.70;3.70;;;17.90;71.70;;;;;;5007026;23;20830;-77
2023/10/25 06:16:30;;;;;;;3.87;3.57;;;17.80;71.30;;;;;;4972757;28;20508;-77
2023/10/25 06:18:59;;;;;;;5.70;3.90;;;17.80;71.50;;;;;;4970586;28;20593;-78
2023/10/25 06:21:27;;;;;;;4.40;3.90;;;17.80;71.50;;;;;;4967815;28;20446;-78
2023/10/25 06:23:55;;;;;;;5.37;4.20;;;17.80;71.80;;;;;;4962459;28;20459;-78
2023/10/25 06:26:24;;;;;;;3.50;3.20;;;17.80;71.90;;;;;;4953127;28;20562;-78
2023/10/25 06:28:52;;;;;;;4.63;4.07;;;17.80;72.00;;;;;;4956003;28;20522;-76
2023/10/25 06:31:20;;;;;;;4.87;3.67;;;17.80;71.70;;;;;;4955455;28;20538;-77
2023/10/25 06:33:50;;;;;;;4.50;3.83;;;17.80;72.00;;;;;;4955635;28;20459;-77
2023/10/25 06:36:19;;;;;;;4.67;3.80;;;17.80;72.00;;;;;;4952012;28;20438;-77
2023/10/25 06:38:47;;;;;;;4.50;3.83;;;17.80;71.90;;;;;;4954370;28;20535;-77
2023/10/25 06:41:16;;;;;;;5.93;3.90;;;17.80;71.90;;;;;;4954138;28;20562;-77
2023/10/25 06:43:44;;;;;;;5.87;4.43;;;17.80;71.80;;;;;;4954896;28;20526;-77
2023/10/25 06:46:13;;;;;;;4.50;3.27;;;17.80;71.80;;;;;;4950554;28;20559;-78
2023/10/25 06:48:42;;;;;;;6.67;3.73;;;17.90;72.00;;;;;;4954772;28;20502;-78
2023/10/25 06:51:12;;;;;;;6.30;4.00;;;17.90;72.00;;;;;;4946556;28;20466;-77
2023/10/25 06:53:40;;;;;;;6.40;3.70;;;17.90;72.00;;;;;;4949517;28;20557;-78
2023/10/25 06:56:09;;;;;;;4.70;3.50;;;17.90;72.00;;;;;;4946009;29;20531;-78
2023/10/25 06:58:38;;;;;;;7.00;4.10;;;17.90;71.70;;;;;;4952886;28;20515;-77
2023/10/25 07:01:07;;;;;;;4.37;3.80;;;17.90;71.90;;;;;;4955122;28;20475;-77
2023/10/25 07:03:36;;;;;;;5.20;3.90;;;17.90;71.90;;;;;;4955189;28;20447;-77
2023/10/25 07:06:05;;;;;;;3.73;3.20;;;17.90;71.50;;;;;;4948137;28;20459;-77
2023/10/25 07:08:35;;;;;;;4.30;3.70;;;17.90;71.60;;;;;;4957926;28;20473;-78
2023/10/25 07:11:03;;;;;;;5.97;4.03;;;17.90;71.30;;;;;;4955648;28;20444;-77
2023/10/25 07:13:32;;;;;;;4.00;3.50;;;17.90;71.40;;;;;;4955301;28;20533;-77
2023/10/25 07:16:00;;;;;;;4.53;4.00;;;17.90;71.60;;;;;;4958285;28;20525;-77
2023/10/25 07:18:28;;;;;;;4.03;3.73;;;17.90;71.40;;;;;;4958940;28;20471;-78
2023/10/25 07:20:58;;;;;;;4.87;4.10;;;17.90;71.40;;;;;;4955127;28;20479;-78
2023/10/25 07:23:26;;;;;;;4.80;4.20;;;17.90;71.40;;;;;;4955600;28;20435;-77
2023/10/25 07:25:55;;;;;;;3.97;3.67;;;17.90;72.10;;;;;;4955299;28;20546;-77
2023/10/25 07:28:23;;;;;;;5.70;4.30;;;17.90;71.30;;;;;;4954536;28;20534;-78
2023/10/25 07:30:51;;;;;;;5.43;4.03;;;17.90;71.20;;;;;;4960815;28;20435;-77
2023/10/25 07:33:20;;;;;;;4.73;3.70;;;17.90;71.10;;;;;;4955366;28;20454;-77
2023/10/25 07:35:48;;;;;;;5.20;3.83;;;17.90;71.20;;;;;;4938825;28;20464;-77
2023/10/25 07:38:16;;;;;;;6.17;3.97;;;18.00;71.10;;;;;;4949078;28;20557;-77
2023/10/25 07:40:44;;;;;;;7.20;4.37;;;18.00;71.10;;;;;;4953844;28;20531;-77
2023/10/25 07:43:14;;;;;;;9.10;4.90;;;18.00;70.90;;;;;;4948873;28;20456;-77
2023/10/25 07:45:42;;;;;;;3.67;3.30;;;18.00;70.90;;;;;;4952653;28;20475;-77
2023/10/25 07:48:10;;;;;;;5.57;4.10;;;18.00;70.90;;;;;;4954683;28;20458;-77
2023/10/25 07:50:38;;;;;;;4.60;3.90;;;18.00;70.90;;;;;;4946415;28;20443;-76
2023/10/25 07:53:05;;;;;;;7.30;3.70;;;18.10;70.90;;;;;;4954534;28;20518;-77
2023/10/25 07:55:33;;;;;;;5.50;3.70;;;18.10;71.10;;;;;;4954175;28;20475;-77
2023/10/25 07:58:04;;;;;;;5.03;3.67;;;18.20;71.10;;;;;;4943281;28;20530;-77
2023/10/25 08:00:53;;;;;;;5.10;3.60;;;18.20;71.20;;;;;;4944900;28;20483;-77
2023/10/25 08:03:20;;;;;;;4.13;3.73;;;18.30;71.30;;;;;;4947408;28;20443;-78
2023/10/25 08:05:49;;;;;;;4.47;3.63;;;18.30;71.30;;;;;;4954281;28;20471;-78
2023/10/25 08:08:17;;;;;;;4.27;3.50;;;18.40;71.30;;;;;;4954293;28;20530;-77
2023/10/25 08:10:45;;;;;;;4.07;3.63;;;18.40;71.30;;;;;;4948985;28;20459;-76
2023/10/25 08:13:13;;;;;;;3.87;3.47;;;18.50;71.70;;;;;;4954333;28;20443;-76
2023/10/25 08:15:41;;;;;;;5.40;3.30;;;18.60;71.70;;;;;;4946070;28;20481;-78
2023/10/25 08:18:10;;;;;;;4.13;3.57;;;18.60;71.50;;;;;;4946498;28;20475;-76
2023/10/25 08:20:38;;;;;;;4.23;3.47;;;18.70;71.40;;;;;;4957134;28;20492;-76
2023/10/25 08:23:06;;;;;;;4.77;3.10;;;18.80;71.90;;;;;;4946397;28;20447;-77
2023/10/25 08:25:34;;;;;;;4.07;3.40;;;18.80;71.80;;;;;;4953572;28;20505;-77
2023/10/25 08:28:02;;;;;;;4.10;3.70;;;18.90;72.40;;;;;;4950860;28;20511;-77
2023/10/25 08:30:30;;;;;;;6.10;3.77;;;18.90;72.40;;;;;;4952731;28;20435;-77
2023/10/25 08:32:57;;;;;;;4.17;3.23;;;19.00;73.00;;;;;;4945898;28;20439;-77
2023/10/25 08:35:27;;;;;;;4.17;3.77;;;19.10;73.60;;;;;;4947692;28;21030;-77
2023/10/25 08:37:55;;;;;;;4.73;4.07;;;19.20;74.10;;;;;;4951678;28;20443;-77
2023/10/25 08:40:25;;;;;;;7.00;3.83;;;19.30;74.70;;;;;;4952551;28;20475;-77
2023/10/25 08:42:53;;;;;;;5.13;4.10;;;19.40;74.80;;;;;;4953740;28;20820;-77
2023/10/25 08:45:24;;;;;;;4.90;3.60;;;19.60;75.50;;;;;;4953485;28;20499;-77
2023/10/25 08:47:52;;;;;;;5.30;3.67;;;19.70;75.90;;;;;;4953234;28;20442;-77
2023/10/25 08:50:20;;;;;;;5.53;4.17;;;19.70;75.90;;;;;;4945349;28;20474;-77
2023/10/25 08:52:50;;;;;;;5.47;4.30;;;19.80;76.30;;;;;;4953045;28;20450;-78
2023/10/25 08:55:18;;;;;;;4.80;4.00;;;19.90;76.70;;;;;;4948717;28;20479;-77
2023/10/25 08:57:53;;;;;;;4.13;3.60;;;19.90;76.90;;;;;;4949483;28;20467;-78
2023/10/25 09:00:22;;;;;;;5.53;4.27;;;20.00;77.00;;;;;;4952801;28;20443;-78
2023/10/25 09:03:03;;;;;;;4.30;3.90;;;20.10;77.20;;;;;;4953168;28;20439;-77
2023/10/25 09:05:39;;;;;;;5.80;4.00;;;20.10;77.10;;;;;;4953228;28;20549;-77
2023/10/25 09:08:15;;;;;;;4.67;4.07;;;20.10;77.30;;;;;;4954080;28;20467;-77
2023/10/25 09:10:43;;;;;;;4.53;4.10;;;20.20;77.50;;;;;;4956363;28;20934;-77
2023/10/25 09:13:13;;;;;;;6.40;4.37;;;20.20;77.60;;;;;;4942762;28;20462;-77
2023/10/25 09:15:41;;;;;;;5.13;3.80;;;20.30;77.40;;;;;;4951788;28;20475;-77
2023/10/25 09:18:10;;;;;;;6.13;4.20;;;20.30;77.20;;;;;;4956730;28;20435;-77
2023/10/25 09:20:38;;;;;;;5.00;4.10;;;20.40;77.30;;;;;;4946396;28;20566;-77
2023/10/25 09:23:10;;;;;;;6.13;4.07;;;20.40;77.30;;;;;;4952712;28;20458;-77
2023/10/25 09:25:39;;;;;;;5.10;4.27;;;20.50;77.00;;;;;;4952443;28;20486;-78
2023/10/25 09:28:14;;;;;;;8.30;3.97;;;20.50;77.20;;;;;;4947244;28;20475;-79
2023/10/25 09:30:43;;;;;;;4.10;3.70;;;20.60;77.10;;;;;;4950268;28;20493;-78
2023/10/25 09:33:11;;;;;;;3.53;3.23;;;20.70;77.50;;;;;;4950878;28;20823;-75
2023/10/25 09:35:41;;;;;;;3.43;3.13;;;20.80;77.60;;;;;;4941382;28;20463;-78
2023/10/25 09:38:09;;;;;;;3.37;3.10;;;20.90;77.60;;;;;;4951779;28;20442;-77
2023/10/25 09:40:41;;;;;;;3.70;3.20;;;21.00;77.90;;;;;;4955785;28;20489;-79
2023/10/25 09:43:13;;;;;;;3.43;3.13;;;21.00;78.00;;;;;;4956195;28;20451;-77
2023/10/25 09:45:41;;;;;;;3.67;3.33;;;21.10;77.90;;;;;;4949382;28;20499;-77
2023/10/25 09:48:10;;;;;;;3.10;2.87;;;21.20;78.10;;;;;;4959385;28;20515;-78
2023/10/25 09:50:39;;;;;;;3.50;2.73;;;21.20;77.80;;;;;;4947709;28;20432;-78
2023/10/25 09:53:11;;;;;;;3.70;3.40;;;21.20;77.80;;;;;;4956054;28;20455;-78
2023/10/25 09:55:42;;;;;;;3.33;3.07;;;21.20;77.80;;;;;;4949627;28;20459;-79
2023/10/25 09:58:11;;;;;;;4.63;3.47;;;21.20;78.00;;;;;;4956694;28;20518;-79
2023/10/25 10:00:39;;;;;;;4.00;3.37;;;21.20;77.90;;;;;;4957706;28;20537;-78
2023/10/25 10:03:09;;;;;;;6.30;2.97;;;21.20;78.10;;;;;;4958048;28;20432;-78
2023/10/25 10:05:41;;;;;;;3.17;2.97;;;21.20;78.20;;;;;;4953845;28;20542;-82
2023/10/25 10:08:12;;;;;;;2.90;2.70;;;21.20;78.30;;;;;;4951726;28;20490;-79
2023/10/25 10:10:46;;;;;;;3.23;2.93;;;21.30;78.50;;;;;;4955151;28;20436;-78
2023/10/25 10:13:17;;;;;;;3.23;2.93;;;21.30;78.40;;;;;;4951681;28;21041;-78
2023/10/25 10:15:59;;;;;;;2.63;2.53;;;21.30;78.20;;;;;;4952246;28;20577;-78
2023/10/25 10:18:28;;;;;;;2.90;2.70;;;21.40;78.50;;;;;;4950117;28;20471;-77
2023/10/25 10:21:00;;;;;;;3.43;2.20;;;21.40;78.40;;;;;;4955961;28;20438;-78
2023/10/25 10:23:35;;;;;;;2.83;2.63;;;21.50;78.60;;;;;;4954248;28;20443;-78
2023/10/25 10:26:05;;;;;;;3.40;2.63;;;21.60;78.70;;;;;;4954765;28;20855;-78
2023/10/25 10:28:46;;;;;;;2.27;2.17;;;21.80;79.00;;;;;;4955850;28;20494;-78
2023/10/25 10:31:14;;;;;;;2.40;2.20;;;21.90;78.90;;;;;;4955806;28;20435;-78
2023/10/25 10:33:44;;;;;;;2.50;2.40;;;22.20;78.90;;;;;;4956150;28;20443;-79
2023/10/25 10:36:13;;;;;;;2.87;2.67;;;22.60;79.60;;;;;;4947512;28;20474;-79
2023/10/25 10:39:12;;;;;;;3.20;2.80;;;23.00;79.30;;;;;;4955497;28;20486;-78
2023/10/25 10:41:42;;;;;;;3.00;2.70;;;23.30;78.40;;;;;;4948199;28;20475;-79
2023/10/25 10:44:11;;;;;;;3.20;2.90;;;23.60;78.10;;;;;;4959312;28;20452;-80
2023/10/25 10:46:44;;;;;;;2.93;2.73;;;23.90;78.20;;;;;;4969011;28;20497;-81
2023/10/25 10:49:13;;;;;;;3.60;2.50;;;24.20;77.00;;;;;;4957244;28;20423;-80
2023/10/25 10:51:48;;;;;;;11.07;4.93;;;24.60;76.90;;;;;;4952005;29;20473;-78
2023/10/25 10:54:18;;;;;;;9.70;6.30;;;23.50;58.70;;;;;;4950945;28;20462;-79
2023/10/25 10:56:47;;;;;;;11.20;4.90;;;22.10;61.40;;;;;;4957152;28;20439;-78
2023/10/25 10:59:15;;;;;;;10.13;5.63;;;21.60;64.70;;;;;;4949774;29;20490;-77
2023/10/25 11:01:44;;;;;;;7.97;5.40;;;22.70;60.90;;;;;;4955545;28;20570;-77
2023/10/25 11:04:11;;;;;;;9.70;4.80;;;22.50;62.60;;;;;;4958205;28;20459;-76
2023/10/25 11:06:40;;;;;;;9.50;4.70;;;21.50;59.60;;;;;;4955760;28;20407;-79
2023/10/25 11:09:09;;;;;;;6.33;4.60;;;20.70;62.80;;;;;;4955366;28;20450;-78
2023/10/25 11:11:36;;;;;;;7.80;4.77;;;19.90;63.60;;;;;;4954977;28;20442;-79
2023/10/25 11:14:06;;;;;;;9.77;5.50;;;19.60;67.70;;;;;;4961555;28;20447;-79
2023/10/25 11:16:33;;;;;;;8.93;6.07;;;19.30;67.80;;;;;;4976555;28;20446;-79
2023/10/25 11:19:08;;;;;;;9.10;4.80;;;19.60;68.00;;;;;;4958038;28;20487;-78
2023/10/25 11:21:36;;;;;;;7.90;5.20;;;20.00;67.20;;;;;;4950166;28;20447;-78
2023/10/25 11:24:07;;;;;;;7.90;5.30;;;20.00;67.60;;;;;;4953366;28;20550;-78
2023/10/25 11:26:40;;;;;;;13.20;4.93;;;20.40;66.10;;;;;;4956654;28;20484;-79
2023/10/25 11:29:10;;;;;;;9.27;4.93;;;20.40;66.90;;;;;;4946584;28;20482;-77
2023/10/25 11:31:41;;;;;;;5.60;4.40;;;20.70;66.40;;;;;;4961297;28;20474;-76
2023/10/25 11:34:09;;;;;;;9.63;4.03;;;21.40;64.00;;;;;;4953059;29;20459;-77
2023/10/25 11:36:37;;;;;;;6.03;3.63;;;21.40;62.80;;;;;;4952277;28;20626;-75
2023/10/25 11:39:06;;;;;;;6.17;3.40;;;22.00;62.00;;;;;;4952944;28;20449;-76
2023/10/25 11:41:34;;;;;;;7.47;3.60;;;21.30;60.10;;;;;;4956020;28;20890;-78
2023/10/25 11:44:02;;;;;;;3.63;3.00;;;21.40;60.60;;;;;;4953344;28;20418;-77
2023/10/25 11:46:39;;;;;;;6.57;2.83;;;22.00;60.70;;;;;;4953044;28;20460;-78
2023/10/25 11:49:07;;;;;;;3.43;3.13;;;22.70;59.30;;;;;;4947981;28;20454;-78
2023/10/25 11:51:40;;;;;;;5.53;3.00;;;24.20;57.20;;;;;;4955858;28;20414;-79
2023/10/25 11:54:08;;;;;;;7.33;3.47;;;24.00;54.10;;;;;;4955639;28;20497;-79
2023/10/25 11:56:45;;;;;;;5.17;3.07;;;24.10;55.30;;;;;;4947225;28;20504;-80
2023/10/25 11:59:13;;;;;;;6.60;2.80;;;24.20;56.80;;;;;;4959270;28;20426;-79
2023/10/25 12:01:42;;;;;;;3.97;2.00;;;24.80;55.50;;;;;;4956669;28;20422;-79
2023/10/25 12:04:10;;;;;;;5.90;2.20;;;25.50;54.90;;;;;;4954876;28;20472;-79
2023/10/25 12:06:45;;;;;;;2.73;1.73;;;25.90;53.90;;;;;;4956144;29;20448;-80
2023/10/25 12:09:14;;;;;;;5.30;1.63;;;26.30;52.80;;;;;;4966135;28;20421;-80
2023/10/25 12:11:43;;;;;;;5.80;2.03;;;26.40;52.20;;;;;;4968616;28;20440;-80
2023/10/25 12:14:13;;;;;;;8.00;1.80;;;26.50;53.40;;;;;;4962876;28;20414;-79
2023/10/25 12:17:00;;;;;;;11.33;2.23;;;26.80;53.00;;;;;;4947124;29;20443;-80
2023/10/25 12:19:28;;;;;;;29.90;2.73;;;26.90;53.40;;;;;;4954965;29;20485;-79
2023/10/25 12:21:57;;;;;;;25.97;2.83;;;27.10;53.20;;;;;;4965680;28;20505;-79
2023/10/25 12:24:26;;;;;;;20.10;2.33;;;27.10;52.40;;;;;;4958378;28;20524;-81
2023/10/25 12:26:54;;;;;;;25.93;3.10;;;26.70;53.20;;;;;;4958156;28;20447;-79
2023/10/25 12:29:24;;;;;;;50.57;2.70;;;26.40;53.70;;;;;;4959781;28;20431;-82
2023/10/25 12:31:52;;;;;;;24.47;2.73;;;26.10;54.50;;;;;;4958375;28;20522;-83
2023/10/25 12:34:22;;;;;;;19.30;2.53;;;25.90;55.70;;;;;;4957596;28;20459;-82
2023/10/25 12:36:51;;;;;;;22.63;2.60;;;25.80;56.40;;;;;;4956580;28;20428;-84
2023/10/25 12:39:23;;;;;;;39.07;2.97;;;25.70;56.80;;;;;;4952755;28;20421;-82
2023/10/25 12:41:52;;;;;;;11.63;2.10;;;25.60;57.90;;;;;;4950441;28;20483;-77
2023/10/25 12:44:20;;;;;;;19.13;2.40;;;25.50;59.00;;;;;;4954295;28;20482;-82
2023/10/25 12:46:48;;;;;;;17.70;2.60;;;25.40;60.00;;;;;;4958579;28;20447;-82
2023/10/25 12:49:18;;;;;;;35.03;2.90;;;25.40;61.20;;;;;;4960087;28;20452;-80
2023/10/25 12:51:48;;;;;;;23.20;2.63;;;25.30;62.10;;;;;;4952723;29;20426;-82
2023/10/25 12:54:16;;;;;;;11.80;2.23;;;25.20;62.90;;;;;;4949351;28;20459;-82
2023/10/25 12:56:44;;;;;;;11.20;2.37;;;25.20;63.20;;;;;;4962936;29;20465;-82